Newcastle, Maine
Current Conditions -  °F | °C
As of 3:53 PM on Thursday 27 Nov 2014 (Local Time) from KIWI Reporting Station
Overcast Overcast  
Wind Chill: 32°   Ceiling: 3200
Heat Index: 32°   Visibility: 10mi
Dew Point: 26°   Wind: 0mph
Humidity: 79%   Direction: NA
Pressure: 29.97"   Gusts: NA
Location:  44.04°N, 69.54°W
Report Text: KIWI 272053Z AUTO 00000KT 10SM OVC032 00/M03 A2997 RMK AO2 SLP151 T00001033 53015
Loading
Personal Weather Stations






























Interactive Weather Map New forecast layout! Learn more

10-Day Weather Forecast

Advertisements
Track Severe Weather on mobile